Greer, Ohio
Current Conditions -  °F | °C
As of 9:16 PM on Sunday 25 Jan 2015 (Local Time) from K4I3 Reporting Station
Light Snow Light Snow  
Wind Chill: 16°   Ceiling: 800
Heat Index: 27°   Visibility: 2.5mi
Dew Point: 25°   Wind: 12mph
Humidity: 93%   Direction: 20°NNE
Pressure: 29.77"   Gusts: NA
Location:  40.5315°N, 82.1576°W
Report Text: K4I3 260216Z AUTO 02010KT 2 1/2SM -SN OVC008 M03/M04 A2977 RMK AO2
Loading
Personal Weather Stations






























Interactive Weather Map New forecast layout! Learn more

10-Day Weather Forecast

Advertisements
Track Severe Weather on mobile